createdAt,value
2023-04-26T00:02:49.115Z,13.00
2023-04-26T00:07:53.181Z,11.00
2023-04-26T00:17:59.504Z,9.00
2023-04-26T00:23:04.347Z,17.00
2023-04-26T00:33:10.666Z,10.00
2023-04-26T00:38:13.920Z,11.50
2023-04-26T00:43:17.086Z,17.00
2023-04-26T00:48:20.870Z,11.00
2023-04-26T00:53:24.616Z,7.50
2023-04-26T00:58:27.861Z,10.00
2023-04-26T01:03:31.321Z,8.00
2023-04-26T01:13:38.170Z,9.00
2023-04-26T01:18:43.250Z,9.50
2023-04-26T01:23:46.660Z,6.00
2023-04-26T01:28:50.017Z,12.00
2023-04-26T01:33:53.242Z,9.00
2023-04-26T01:38:56.319Z,7.50
2023-04-26T01:43:59.718Z,7.50
2023-04-26T01:49:02.861Z,12.50
2023-04-26T01:54:06.792Z,7.50
2023-04-26T01:59:10.160Z,9.00
2023-04-26T02:04:13.436Z,10.00
2023-04-26T02:09:16.689Z,6.00
2023-04-26T02:14:20.502Z,8.00
2023-04-26T02:19:25.338Z,4.00
2023-04-26T02:24:28.674Z,7.00
2023-04-26T02:29:43.662Z,8.00
2023-04-26T02:34:48.069Z,11.50
2023-04-26T02:39:51.871Z,6.50
2023-04-26T02:44:55.038Z,6.00
2023-04-26T02:49:59.471Z,9.00
2023-04-26T03:05:13.696Z,7.00
2023-04-26T03:10:17.617Z,8.00
2023-04-26T03:20:25.492Z,8.00
2023-04-26T03:25:28.790Z,14.00
2023-04-26T03:30:32.052Z,11.00
2023-04-26T03:35:35.486Z,13.00
2023-04-26T03:40:38.812Z,10.00
2023-04-26T03:45:42.117Z,14.00
2023-04-26T03:50:46.218Z,14.00
2023-04-26T03:55:49.626Z,13.00
2023-04-26T04:00:52.882Z,9.00
2023-04-26T04:05:56.320Z,10.00
2023-04-26T04:16:04.217Z,13.00
2023-04-26T04:31:17.866Z,8.00
2023-04-26T04:36:21.250Z,11.50
2023-04-26T04:41:24.374Z,11.50
2023-04-26T04:46:27.861Z,12.00
2023-04-26T04:51:31.442Z,10.50
2023-04-26T04:56:34.821Z,12.00
2023-04-26T05:01:39.048Z,8.00
2023-04-26T05:06:49.290Z,9.00
2023-04-26T05:11:52.565Z,11.50
2023-04-26T05:16:56.817Z,10.00
2023-04-26T05:22:00.184Z,13.00
2023-04-26T05:27:04.639Z,8.00
2023-04-26T05:32:22.965Z,13.00
2023-04-26T05:37:40.257Z,11.00
2023-04-26T05:42:43.541Z,13.50
2023-04-26T05:47:47.825Z,11.50
2023-04-26T05:52:51.809Z,8.00
2023-04-26T05:57:55.730Z,10.00
2023-04-26T06:02:59.167Z,8.50
2023-04-26T06:08:02.474Z,7.00
2023-04-26T06:13:05.897Z,8.00
2023-04-26T06:18:11.251Z,9.00
2023-04-26T06:23:14.657Z,8.50
2023-04-26T06:28:18.029Z,8.00
2023-04-26T06:33:22.820Z,6.50
2023-04-26T06:38:26.369Z,9.00
2023-04-26T06:43:29.891Z,7.00
2023-04-26T06:48:39.318Z,4.50
2023-04-26T06:53:42.526Z,6.50
2023-04-26T06:59:05.105Z,8.00
2023-04-26T07:04:10.783Z,6.50
2023-04-26T07:09:14.211Z,4.00
2023-04-26T07:14:17.708Z,4.00
2023-04-26T07:24:23.871Z,5.00
2023-04-26T07:29:27.136Z,4.00
2023-04-26T07:34:30.502Z,8.00
2023-04-26T07:39:33.800Z,2.50
2023-04-26T07:44:37.087Z,4.00
2023-04-26T07:49:40.268Z,5.00
2023-04-26T07:54:46.645Z,1.00
2023-04-26T07:59:49.857Z,2.00
2023-04-26T08:04:53.583Z,3.00
2023-04-26T08:09:57.029Z,3.00
2023-04-26T08:15:01.421Z,4.00
2023-04-26T08:20:09.747Z,4.00
2023-04-26T08:25:13.397Z,4.00
2023-04-26T08:30:17.068Z,4.50
2023-04-26T08:35:20.190Z,3.00
2023-04-26T08:45:31.601Z,3.00
2023-04-26T08:50:34.912Z,3.00
2023-04-26T08:55:38.140Z,3.00
2023-04-26T09:00:43.857Z,3.00
2023-04-26T09:10:50.280Z,4.00
2023-04-26T09:15:53.553Z,4.00
2023-04-26T09:21:08.181Z,5.00
2023-04-26T09:26:18.877Z,2.00
2023-04-26T09:31:50.144Z,3.00
2023-04-26T09:36:57.358Z,5.00
2023-04-26T09:42:00.678Z,6.00
2023-04-26T09:47:06.159Z,11.00
2023-04-26T09:57:17.080Z,6.00
2023-04-26T10:02:25.234Z,9.00
2023-04-26T10:07:30.870Z,7.00
2023-04-26T10:12:34.670Z,6.00
2023-04-26T10:17:40.596Z,7.00
2023-04-26T10:22:52.349Z,10.00
2023-04-26T10:27:55.578Z,9.00
2023-04-26T10:32:58.898Z,6.00
2023-04-26T10:38:02.214Z,6.50
2023-04-26T10:43:18.359Z,4.00
2023-04-26T10:48:22.857Z,6.50
2023-04-26T10:53:26.154Z,3.50
2023-04-26T10:58:35.284Z,6.00
2023-04-26T11:03:38.793Z,4.00
2023-04-26T11:08:43.443Z,4.00
2023-04-26T11:13:47.530Z,7.00
2023-04-26T11:23:54.998Z,2.50
2023-04-26T11:28:58.254Z,3.00
2023-04-26T11:39:07.351Z,3.00
2023-04-26T11:44:12.343Z,4.00
2023-04-26T11:49:16.518Z,5.00
2023-04-26T11:54:32.426Z,5.00
2023-04-26T11:59:35.643Z,6.00
2023-04-26T12:04:45.074Z,6.00
2023-04-26T12:09:48.330Z,4.50
2023-04-26T12:14:51.484Z,5.00
2023-04-26T12:19:54.738Z,5.00
2023-04-26T12:30:09.023Z,5.00
2023-04-26T12:35:12.307Z,4.00
2023-04-26T12:40:16.350Z,5.00
2023-04-26T12:45:19.858Z,4.50
2023-04-26T12:50:23.118Z,4.00
2023-04-26T12:55:26.904Z,3.00
2023-04-26T13:00:30.137Z,6.00
2023-04-26T13:05:33.349Z,3.00
2023-04-26T13:10:36.551Z,6.00
2023-04-26T13:15:40.141Z,4.00
2023-04-26T13:20:43.308Z,3.50
2023-04-26T13:25:46.572Z,3.00
2023-04-26T13:30:49.890Z,3.00
2023-04-26T13:35:53.196Z,2.00
2023-04-26T13:40:56.577Z,3.00
2023-04-26T13:46:00.254Z,2.00
2023-04-26T13:51:07.010Z,3.00
2023-04-26T13:56:10.477Z,3.00
2023-04-26T14:06:19.783Z,4.00
2023-04-26T14:16:27.029Z,3.50
2023-04-26T14:21:30.211Z,3.50
2023-04-26T14:26:33.769Z,3.00
2023-04-26T14:31:37.245Z,3.00
2023-04-26T14:36:40.797Z,3.00
2023-04-26T14:46:47.053Z,2.00
2023-04-26T14:51:52.587Z,4.00
2023-04-26T14:56:56.491Z,3.00
2023-04-26T15:01:59.980Z,3.00
2023-04-26T15:07:04.512Z,4.00
2023-04-26T15:12:07.955Z,2.50
2023-04-26T15:17:11.933Z,6.00
2023-04-26T15:22:15.176Z,3.00
2023-04-26T15:27:18.807Z,4.00
2023-04-26T15:32:22.250Z,4.00
2023-04-26T15:37:25.888Z,5.00
2023-04-26T15:42:29.286Z,3.00
2023-04-26T15:47:34.665Z,2.00
2023-04-26T15:52:39.416Z,4.00
2023-04-26T15:57:42.993Z,5.00
2023-04-26T16:02:46.532Z,4.00
2023-04-26T16:07:49.819Z,1.00
2023-04-26T16:12:52.981Z,5.00
2023-04-26T16:17:56.172Z,2.00
2023-04-26T16:22:59.436Z,4.00
2023-04-26T16:28:02.645Z,2.00
2023-04-26T16:33:10.152Z,2.00
2023-04-26T16:38:13.512Z,4.00
2023-04-26T16:43:17.070Z,4.00
2023-04-26T16:48:20.810Z,5.00
2023-04-26T16:53:24.092Z,4.00
2023-04-26T16:58:27.507Z,4.00
2023-04-26T17:03:31.350Z,5.00
2023-04-26T17:08:34.808Z,3.00
2023-04-26T17:13:38.283Z,4.50
2023-04-26T17:18:42.005Z,4.00
2023-04-26T17:28:48.296Z,3.00
2023-04-26T17:38:54.702Z,4.00
2023-04-26T17:43:57.916Z,3.00
2023-04-26T17:49:01.230Z,3.00
2023-04-26T17:54:04.596Z,5.00
2023-04-26T17:59:07.878Z,6.00
2023-04-26T18:04:11.282Z,3.50
2023-04-26T18:09:14.607Z,4.00
2023-04-26T18:19:21.277Z,3.00
2023-04-26T18:29:28.262Z,4.00
2023-04-26T18:34:31.448Z,5.00
2023-04-26T18:44:37.800Z,3.00
2023-04-26T18:49:41.007Z,5.00
2023-04-26T18:59:47.312Z,4.00
2023-04-26T19:04:50.784Z,8.00
2023-04-26T19:09:59.724Z,10.00
2023-04-26T19:15:03.908Z,6.50
2023-04-26T19:20:10.475Z,5.50
2023-04-26T19:25:14.981Z,4.00
2023-04-26T19:30:18.261Z,2.00
2023-04-26T19:35:21.489Z,5.00
2023-04-26T19:40:24.751Z,8.00
2023-04-26T19:45:29.347Z,6.00
2023-04-26T19:50:32.758Z,3.00
2023-04-26T19:55:39.549Z,9.00
2023-04-26T20:00:43.898Z,10.50
2023-04-26T20:05:47.069Z,13.00
2023-04-26T20:10:50.575Z,10.50
2023-04-26T20:15:53.797Z,10.00
2023-04-26T20:20:56.833Z,9.00
2023-04-26T20:26:00.129Z,15.00
2023-04-26T20:31:03.258Z,27.00
2023-04-26T20:36:06.642Z,13.50
2023-04-26T20:46:13.153Z,12.00
2023-04-26T20:51:16.332Z,10.00
2023-04-26T20:56:19.436Z,16.00
2023-04-26T21:01:22.771Z,32.00
2023-04-26T21:06:26.013Z,17.00
2023-04-26T21:11:29.246Z,19.00
2023-04-26T21:16:32.442Z,29.00
2023-04-26T21:21:35.879Z,28.00
2023-04-26T21:26:39.064Z,23.00
2023-04-26T21:31:42.267Z,22.00
2023-04-26T21:36:45.528Z,21.00
2023-04-26T21:41:48.701Z,22.00
2023-04-26T21:46:52.081Z,24.00
2023-04-26T21:51:55.370Z,22.00
2023-04-26T21:56:58.470Z,24.00
2023-04-26T22:02:02.594Z,28.00
2023-04-26T22:07:06.046Z,25.00
2023-04-26T22:12:09.293Z,21.00
2023-04-26T22:17:12.439Z,29.00
2023-04-26T22:22:16.067Z,22.00
2023-04-26T22:27:19.322Z,23.00
2023-04-26T22:32:22.674Z,24.00
2023-04-26T22:37:26.057Z,18.00
2023-04-26T22:42:29.215Z,23.50
2023-04-26T22:47:32.367Z,31.50
2023-04-26T22:52:36.465Z,31.00
2023-04-26T22:57:39.823Z,33.00
2023-04-26T23:02:43.085Z,25.00
2023-04-26T23:07:46.449Z,29.00
2023-04-26T23:17:54.137Z,26.00
2023-04-26T23:22:57.437Z,29.00
2023-04-26T23:28:00.725Z,21.00
2023-04-26T23:33:04.113Z,27.50
2023-04-26T23:38:07.254Z,26.00
2023-04-26T23:43:13.133Z,19.50
2023-04-26T23:53:20.108Z,25.00
2023-04-26T23:58:23.292Z,28.00
